Terminal Aerodrome Forecast
Issued by NWS

Current Version | Previous Version | Graphics & Text | Print | Product List | Glossary On
Versions: 1 2 3 4 5 6 7 8 9 10 11 12 13 14 15 16 17 18 19 20 21
000
FTUS41 KILN 131737
TAFLUK
TAF
KLUK 131737Z 1318/1418 06004KT P6SM SCT050
     FM140000 00000KT P6SM FEW250
     FM140900 00000KT P6SM BKN130
     FM141500 15003KT P6SM BKN060=

USA.gov is the U.S. government's official web portal to all federal, state and local government web resources and services.